Tiempo atmosférico en la estación meteorológica de La Póveda de Soria, Barriomartín, Soria (1260 m.)



Fecha
DESCASC
Temp. máxima en grados centígrados (hora)
DESCASC
Temp. mínima en grados centígrados (hora)
DESCASC
Temp. media en grados centígrados
DESCASC
Racha de viento máxima en m/sg (hora)
DESCASC
Velocidad máxima media en intervalos de 10 minutos(hora)
DESCASC
Precipitaciones diarias en mm
DESCASC
Precipitaciones de 00:00 a 06:00 en mm
DESCASC
Precipitaciones de 06:00 a 12:00 en mm
DESCASC
Precipitaciones de 12:00 a 18:00 en mm
DESCASC
Precipitaciones de 18:00 a 24:00 en mm
DESCASC
20-10-2019 10.1 (13:30) 2.7 (23:59) 6.4 10.28 (07:30) 5.83 (13:50) 8.6 7.6 0.2 0.4 0.4
19-10-2019 12.6 (14:50) 7.8 (07:30) 10.2 11.39 (18:50) 6.39 (18:40) 3.6 0 0 0 3.6
18-10-2019 15.5 (13:40) 9.2 (00:20) 12.3 13.06 (14:10) 5.83 (14:10) 10 9.4 0.4 0.2 0
17-10-2019 15.3 (17:30) 4.2 (00:00) 9.8 7.22 (17:40) 3.89 (10:20) 0 0 0 0 0
16-10-2019 15.7 (16:50) 6.5 (00:00) 11.1 10.56 (07:50) 4.72 (15:00) 0 0 0 0 0
15-10-2019 13.2 (15:40) -0.7 (-00:0) 6.2 9.44 (17:50) 5.28 (17:10) 0.8 0.8 0 0 0
14-10-2019 16.8 (16:30) 5 (00:00) 10.9 16.39 (12:50) 8.61 (11:40) 4 0 0 0 4
13-10-2019 20.6 (15:20) 8.4 (00:00) 14.5 13.06 (01:40) 7.78 (15:40) 0 0 0 0 0
12-10-2019 22.4 (15:50) 9.1 (00:00) 15.8 16.11 (17:20) 7.78 (17:30) 2.8 0 0 2.8 0
10-10-2019 19.3 (16:50) 3.8 (00:00) 11.5 7.5 (01:00) 5 (00:30) 0 0 0 0 0
09-10-2019 17.7 (12:50) 6.8 (00:00) 12.3 8.61 (10:00) 5.28 (10:10) 0 0 0 0 0
08-10-2019 26.2 (15:50) 8.2 (00:00) 17.2 8.06 (15:10) 4.44 (15:10) 0 0 0 0 0
07-10-2019 20.1 (15:00) 6.2 (00:00) 13.2 13.61 (13:30) 7.78 (13:10) 0 0 0 0 0
06-10-2019 20 (15:40) 7.4 (00:00) 13.7 11.39 (18:40) 6.39 (18:40) 0 0 0 0 0
05-10-2019 23.9 (16:20) 5.8 (08:20) 14.8 5.56 (00:50) 3.61 (00:50) 0 0 0 0 0
04-10-2019 23.8 (16:00) 5.8 (00:00) 14.8 9.17 (16:00) 5.28 (15:50) 0 0 0 0 0
03-10-2019 22.6 (14:40) 2.6 (00:00) 12.6 7.5 (18:30) 4.72 (17:20) 0 0 0 0 0
02-10-2019 14.2 (15:50) 8.1 (00:00) 11.2 13.61 (13:20) 8.61 (13:20) 0 0 0 0 0
01-10-2019 -- (--) -- (--) -- -- (--) -- (--) 0 0 0 0 0
30-09-2019 -- (--) -- (--) -- -- (--) -- (--) 0 0 0 0 0
29-09-2019 -- (--) -- (--) -- -- (--) -- (--) 0 0 0 0 0
28-09-2019 -- (--) -- (--) -- -- (--) -- (--) 0 0 0 0 0
27-09-2019 23.9 (16:30) 7 (00:00) 15.4 8.06 (14:00) 4.72 (17:10) 0 0 0 0 0
26-09-2019 24.1 (16:20) 7.1 (00:00) 15.6 8.33 (16:30) 4.44 (16:30) 0 0 0 0 0
25-09-2019 19.4 (16:00) 6.7 (00:00) 13 5.83 (15:00) 3.33 (09:50) 0 0 0 0 0
24-09-2019 19.8 (16:20) 8.4 (00:00) 14.1 11.11 (11:50) 6.11 (11:40) 0 0 0 0 0
23-09-2019 19 (17:10) 4.8 (00:00) 11.9 6.67 (14:30) 4.17 (14:40) 0 0 0 0 0
22-09-2019 17.9 (15:30) 6.8 (00:00) 12.3 9.17 (13:50) 5.83 (13:50) 1.6 1.2 0.4 0 0

Gráficas

Temp. máximas Temp. mínimas Temp. medias Precipitaciones Rachas de viento máximas Velocidades máximas media en intervalos de 10 minutos

Datos horarios

Fecha y hora oficial Temperatura (ºC) Velocidad del viento (km/h) Dirección del viento Racha (km/h) Dirección de racha Precipitación (mm) Presión (hPa) Tendencia (hPa) Humedad (%)
2019-10-21 23:00:00 1.7 6 Noroeste 12 Noroeste 0 -- -- 90
2019-10-21 22:00:00 2.1 6 Noroeste 11 Norte 0 -- -- 89
2019-10-21 21:00:00 3.6 3 Norte 6 Oeste 0 -- -- 85
2019-10-21 20:00:00 6.1 3 Sudeste 17 Este 0 -- -- 76
2019-10-21 19:00:00 7 5 Este 21 Este 0 -- -- 74
2019-10-21 18:00:00 7.8 10 Nordeste 25 Nordeste 0 -- -- 71
2019-10-21 17:00:00 10.1 10 Sur 18 Sudoeste 0 -- -- 55
2019-10-21 16:00:00 9.7 9 Sudoeste 19 Sudeste 0 -- -- 60
2019-10-21 15:00:00 10.8 10 Sur 21 Sur 0 -- -- 62
2019-10-21 14:00:00 10.7 8 Sur 19 Sudeste 0 -- -- 59
2019-10-21 13:00:00 9.3 7 Sur 16 Sudeste 0 -- -- 68
2019-10-21 12:00:00 7.8 6 Sudeste 14 Sudeste 0 -- -- 70
2019-10-21 11:00:00 6.6 5 Sudeste 9 Sur 0 -- -- 73
2019-10-21 10:00:00 2.7 3 Norte 10 Norte 0.2 -- -- 94
2019-10-21 09:00:00 -0.4 5 Norte 9 Norte 0 -- -- 96
2019-10-21 08:00:00 -0.6 6 Norte 11 Norte 0 -- -- 94
2019-10-21 07:00:00 0.2 8 Norte 13 Noroeste 0 -- -- 94
2019-10-21 06:00:00 0.6 8 Noroeste 12 Norte 0 -- -- 94
2019-10-21 05:00:00 0.9 5 Norte 10 Norte 0 -- -- 93
2019-10-21 04:00:00 1.3 5 Noroeste 16 Norte 0 -- -- 92
2019-10-21 03:00:00 1.1 6 Noroeste 11 Noroeste 0 -- -- 93
2019-10-21 02:00:00 0.7 3 Norte 6 Norte 0 -- -- 92
2019-10-21 01:00:00 1.9 3 Noroeste 12 Norte 0 -- -- 89
2019-10-21 00:00:00 2.7 4 Nordeste 19 Noroeste 0 -- -- 88
2019-10-20 23:00:00 3.5 15 Norte 31 Norte 0 -- -- 90
2019-10-20 22:00:00 4 18 Norte 30 Norte 0 -- -- 89
2019-10-20 21:00:00 4.5 10 Norte 20 Norte 0 -- -- 88
2019-10-20 20:00:00 4.6 9 Norte 20 Norte 0.4 -- -- 91
2019-10-20 19:00:00 5.3 8 Norte 18 Norte 0 -- -- 90
2019-10-20 18:00:00 5.5 12 Norte 23 Norte 0.2 -- -- 89
2019-10-20 17:00:00 8.5 8 Noroeste 22 Oeste 0 -- -- 79
2019-10-20 16:00:00 9.2 10 Sudoeste 22 Oeste 0 -- -- 79
2019-10-20 15:00:00 8.2 9 Oeste 31 Oeste 0.2 -- -- 80
2019-10-20 14:00:00 8.1 14 Oeste 36 Oeste 0 -- -- 77
2019-10-20 13:00:00 8.7 8 Oeste 22 Sudoeste 0 -- -- 77
2019-10-20 12:00:00 7.4 10 Oeste 24 Oeste 0 -- -- 76
2019-10-20 11:00:00 6.7 10 Oeste 21 Sudoeste 0 -- -- 84
2019-10-20 10:00:00 5.8 5 Noroeste 17 Oeste 0 -- -- 88
2019-10-20 09:00:00 4.4 2 Este 15 Sudoeste 0 -- -- 91
2019-10-20 08:00:00 5.1 7 Oeste 37 Sudoeste 0 -- -- 90
2019-10-20 07:00:00 5.4 14 Sudoeste 29 Sudoeste 0.2 -- -- 92
2019-10-20 06:00:00 5.9 11 Sudoeste 30 Oeste 0 -- -- 92
2019-10-20 05:00:00 7.5 15 Oeste 35 Sudoeste 2 -- -- 95
2019-10-20 04:00:00 8.6 15 Sur 36 Sur 1 -- -- 96
2019-10-20 03:00:00 8.7 14 Sur 24 Sur 0 -- -- 96
2019-10-20 02:00:00 8.6 11 Sudoeste 19 Sudoeste 0.8 -- -- 95
2019-10-20 01:00:00 9 7 Sudeste 20 Sur 3.8 -- -- 94
2019-10-20 00:00:00 9.5 8 Sur 19 Sur 2.8 -- -- 94
2019-10-19 23:00:00 9.8 11 Sur 33 Oeste 0.8 -- -- 90
2019-10-19 22:00:00 10.5 19 Sudoeste 40 Sur 0 -- -- 85
2019-10-19 21:00:00 10.3 14 Sur 41 Sur 0 -- -- 86
2019-10-19 20:00:00 10.5 14 Sur 40 Sur 0 -- -- 82
2019-10-19 19:00:00 10.7 23 Sur 41 Sudoeste 0 -- -- 79
2019-10-19 18:00:00 10.8 17 Sur 36 Sur 0 -- -- 71
2019-10-19 17:00:00 11.3 19 Sur 35 Sudoeste 0 -- -- 70
2019-10-19 16:00:00 12.1 16 Sur 35 Sudoeste 0 -- -- 67
2019-10-19 15:00:00 12.4 17 Sur 30 Sur 0 -- -- 74
2019-10-19 14:00:00 11.6 13 Sur 28 Sur 0 -- -- 76
2019-10-19 13:00:00 10.5 13 Sur 23 Sur 0 -- -- 78
2019-10-19 12:00:00 9.8 12 Sur 27 Sur 0 -- -- 81
2019-10-19 11:00:00 9.4 10 Sudeste 24 Sudeste 0 -- -- 86
2019-10-19 10:00:00 8.5 11 Sudeste 21 Sudeste 0 -- -- 89
2019-10-19 09:00:00 8.2 9 Sudeste 16 Sudeste 0 -- -- 90
2019-10-19 08:00:00 7.8 3 Noroeste 13 Sudeste 0 -- -- 92
2019-10-19 07:00:00 8.1 2 Sudeste 10 Sudeste 0 -- -- 90
2019-10-19 06:00:00 8.3 6 Sudeste 10 Sudeste 0 -- -- 91
2019-10-19 05:00:00 9 2 Este 14 Sudeste 0 -- -- 88
2019-10-19 04:00:00 9.9 8 Sudoeste 21 Sudoeste 0 -- -- 86
2019-10-19 03:00:00 10.2 6 Sur 24 Sudoeste 0 -- -- 86
2019-10-19 02:00:00 10.6 9 Sur 30 Sudoeste 0 -- -- 86
2019-10-19 01:00:00 10.5 10 Sudoeste 22 Sudoeste 0 -- -- 87
2019-10-19 00:00:00 10.7 8 Sudoeste 28 Sudoeste 0 -- -- 86
2019-10-18 23:00:00 10.7 8 Sudoeste 18 Sudoeste 0 -- -- 86
2019-10-18 22:00:00 10.3 2 Sudeste 13 Sur 0 -- -- 87
2019-10-18 21:00:00 11 4 Sur 17 Oeste 0 -- -- 83
2019-10-18 20:00:00 11.6 3 Sur 21 Oeste 0 -- -- 79
2019-10-18 19:00:00 12.4 12 Oeste 31 Oeste 0 -- -- 73
2019-10-18 18:00:00 13.5 19 Sudoeste 33 Oeste 0 -- -- 66
2019-10-18 17:00:00 14.3 16 Sudoeste 36 Sudoeste 0 -- -- 62
2019-10-18 16:00:00 14.8 13 Sudoeste 33 Oeste 0 -- -- 61
2019-10-18 15:00:00 14.7 18 Oeste 47 Oeste 0 -- -- 66
2019-10-18 14:00:00 14.7 20 Oeste 46 Sudoeste 0.2 -- -- 73
2019-10-18 13:00:00 14.7 10 Oeste 27 Oeste 0 -- -- 79
2019-10-18 12:00:00 12.7 4 Sudeste 11 Este 0 -- -- 93
2019-10-18 11:00:00 11.5 4 Sudeste 13 Sudeste 0 -- -- 97
2019-10-18 10:00:00 10.7 4 Sudoeste 12 Sudoeste 0 -- -- 97
2019-10-18 09:00:00 9.9 0 Calma 6 Oeste 0 -- -- 97
2019-10-18 08:00:00 10.1 2 Este 8 Este 0.4 -- -- 97
2019-10-18 07:00:00 10.5 0 Calma 9 Sur 0 -- -- 97
2019-10-18 06:00:00 10.5 3 Sur 16 Sur 2 -- -- 97
2019-10-18 05:00:00 10.1 3 Este 6 Sudeste 3.4 -- -- 97
2019-10-18 04:00:00 9.8 2 Sudeste 5 Sur -- -- -- 97
2019-10-18 03:00:00 9.5 4 Sur 10 Sur 3 -- -- 97
2019-10-18 02:00:00 9.4 7 Sur 13 Sur 0.6 -- -- 96
2019-10-18 01:00:00 9.2 6 Sur 22 Sur 0 -- -- 96
2019-10-18 00:00:00 9.3 7 Sur 19 Sur 0 -- -- 95
2019-10-17 23:00:00 9.6 11 Sur 21 Sur 0 -- -- 93
2019-10-17 22:00:00 8.9 4 Sur 13 Sur 0 -- -- 94
2019-10-17 21:00:00 7.6 5 Norte 9 Noroeste 0 -- -- 90
2019-10-17 20:00:00 9.6 5 Sudoeste 9 Oeste 0 -- -- 81
2019-10-17 19:00:00 13.4 3 Sudoeste 21 Sudoeste 0 -- -- 75
2019-10-17 18:00:00 15 5 Oeste 26 Oeste 0 -- -- 71
2019-10-17 17:00:00 14.7 8 Sudoeste 23 Sudoeste 0 -- -- 74
2019-10-17 16:00:00 14.4 9 Sudoeste 22 Sudoeste 0 -- -- 75
2019-10-17 15:00:00 13.6 13 Sudoeste 26 Sudoeste 0 -- -- 81
2019-10-17 14:00:00 11.9 5 Sudeste 23 Sur 0 -- -- 92
2019-10-17 13:00:00 9.7 13 Sur 22 Sur 0 -- -- 94
2019-10-17 12:00:00 8.7 13 Sudeste 22 Sudeste 0 -- -- 94
2019-10-17 11:00:00 8.7 11 Sur 24 Sudeste 0 -- -- 94
2019-10-17 10:00:00 7.8 8 Sudeste 15 Sudeste 0 -- -- 93
2019-10-17 09:00:00 6.1 5 Sur 15 Sur 0 -- -- 90
2019-10-17 08:00:00 6 0 Calma 6 Oeste 0 -- -- 89
2019-10-17 07:00:00 6.1 0 Calma 5 Sudoeste 0 -- -- 86
2019-10-17 06:00:00 5.2 3 Norte 5 Sudoeste 0 -- -- 87
2019-10-17 05:00:00 4.4 4 Norte 5 Norte 0 -- -- 86
2019-10-17 04:00:00 4.5 3 Norte 5 Noroeste 0 -- -- 81
2019-10-17 03:00:00 5 3 Sudoeste 8 Sudoeste 0 -- -- 77
2019-10-17 02:00:00 6.3 6 Sudoeste 10 Oeste 0 -- -- 70
2019-10-17 01:00:00 7 2 Norte 17 Sudeste 0 -- -- 67
2019-10-17 00:00:00 7.7 7 Sur 14 Sudeste 0 -- -- 60
2019-10-16 23:00:00 8.9 8 Sur 17 Sudoeste 0 -- -- 56
2019-10-16 22:00:00 10 5 Sudoeste 10 Sudoeste 0 -- -- 56
2019-10-16 21:00:00 10.3 4 Sudeste 13 Sudeste 0 -- -- 57
2019-10-16 20:00:00 10.4 5 Sudoeste 12 Sudeste 0 -- -- 63
2019-10-16 19:00:00 12.6 4 Sur 23 Sudoeste 0 -- -- 58
2019-10-16 18:00:00 14.3 12 Sudoeste 28 Sudoeste 0 -- -- 50
2019-10-16 17:00:00 15.7 8 Sudoeste 26 Sur 0 -- -- 44
2019-10-16 16:00:00 14.3 10 Sudeste 28 Sudoeste 0 -- -- 52
2019-10-16 15:00:00 12.4 17 Sudoeste 35 Oeste 0 -- -- 56
2019-10-16 14:00:00 9.9 6 Sudeste 31 Sudeste 0 -- -- 66
2019-10-16 13:00:00 10 6 Este 36 Norte 0 -- -- 60
2019-10-16 12:00:00 10.9 9 Este 31 Sudoeste 0 -- -- 48
2019-10-16 11:00:00 10.8 10 Sur 31 Oeste 0 -- -- 62
2019-10-16 10:00:00 9.8 10 Sur 21 Sur 0 -- -- 71
2019-10-16 09:00:00 7.1 5 Sudeste 23 Sudoeste 0 -- -- 81
2019-10-16 08:00:00 6.6 8 Sur 38 Sudoeste 0 -- -- 82
2019-10-16 07:00:00 6.6 9 Sur 18 Sudeste 0 -- -- 81
2019-10-16 06:00:00 6.7 9 Sudeste 24 Sudeste 0 -- -- 81
2019-10-16 05:00:00 7.2 5 Sudeste 19 Sudoeste 0 -- -- 76
2019-10-16 04:00:00 7.9 5 Sur 26 Sur 0 -- -- 72
2019-10-16 03:00:00 7.6 5 Sur 24 Sudoeste 0 -- -- 72
2019-10-16 02:00:00 7.2 9 Sur 27 Sudeste 0 -- -- 74
2019-10-16 01:00:00 6.8 14 Sudeste 25 Sudeste 0 -- -- 74
2019-10-16 00:00:00 7.1 8 Sur 15 Sudeste 0 -- -- 72
2019-10-15 23:00:00 7.2 5 Sudoeste 18 Oeste 0 -- -- 72
2019-10-15 22:00:00 5.5 8 Oeste 18 Oeste 0 -- -- 77
2019-10-15 21:00:00 4.9 2 Nordeste 6 Noroeste 0 -- -- 78
2019-10-15 20:00:00 6.7 0 Calma 25 Oeste 0 -- -- 67
2019-10-15 19:00:00 8.1 11 Oeste 30 Oeste 0 -- -- 63
2019-10-15 18:00:00 9.9 17 Oeste 34 Sudoeste 0 -- -- 59
2019-10-15 17:00:00 11.3 15 Oeste 28 Oeste 0 -- -- 57
2019-10-15 16:00:00 12.7 13 Sudoeste 24 Sudoeste 0 -- -- 54
2019-10-15 15:00:00 12 10 Norte 20 Oeste 0 -- -- 50
2019-10-15 14:00:00 11.9 3 Sur 26 Sudoeste 0 -- -- 54
2019-10-15 13:00:00 10.9 10 Sudoeste 28 Oeste 0 -- -- 64
2019-10-15 12:00:00 8.9 6 Sur 17 Sudoeste 0 -- -- 69
2019-10-15 11:00:00 6.5 3 Sudeste 14 Sudeste 0 -- -- 77
2019-10-15 10:00:00 4.8 4 Sudeste 9 Sudeste 0 -- -- 86
2019-10-15 09:00:00 0.5 5 Sudeste 14 Sudoeste 0 -- -- 94
2019-10-15 08:00:00 -0.6 4 Sur 8 Norte 0 -- -- 91
2019-10-15 07:00:00 1.5 3 Oeste 18 Norte 0 -- -- 87
2019-10-15 06:00:00 1.3 4 Norte 11 Oeste 0 -- -- 91
2019-10-15 05:00:00 2.6 6 Oeste 20 Oeste 0 -- -- 88
2019-10-15 04:00:00 3.8 6 Oeste 18 Oeste 0 -- -- 86
2019-10-15 03:00:00 4 11 Oeste 26 Oeste 0 -- -- 87
2019-10-15 02:00:00 3.7 8 Noroeste 24 Noroeste 0.6 -- -- 87
2019-10-15 01:00:00 4.7 6 Noroeste 17 Noroeste 0.2 -- -- 89
2019-10-15 00:00:00 5.1 8 Noroeste 24 Oeste 0 -- -- 86
2019-10-14 23:00:00 5.3 6 Noroeste 27 Sudoeste 0 -- -- 91
2019-10-14 22:00:00 5.5 14 Sudoeste 34 Sudoeste 0.4 -- -- 92
2019-10-14 21:00:00 5.5 8 Sudoeste 29 Sudoeste 1.2 -- -- 90
2019-10-14 20:00:00 5.9 12 Sudoeste 49 Oeste 0.8 -- -- 87
2019-10-14 19:00:00 9.7 8 Oeste 33 Oeste 1.6 -- -- 84
2019-10-14 18:00:00 14 12 Sudoeste 27 Sudoeste 0 -- -- 55
2019-10-14 17:00:00 16.3 14 Oeste 49 Sudoeste 0 -- -- 52
2019-10-14 16:00:00 16.4 21 Sudoeste 54 Oeste 0 -- -- 59
2019-10-14 15:00:00 14.6 21 Sudoeste 44 Sudoeste 0 -- -- 72
2019-10-14 14:00:00 15.2 22 Sudoeste 56 Sudoeste 0 -- -- 64
2019-10-14 13:00:00 14.9 26 Sudoeste 59 Sudoeste 0 -- -- 60
2019-10-14 12:00:00 14.9 24 Sur 55 Sudoeste 0 -- -- 67
2019-10-14 11:00:00 14.2 27 Sur 51 Sudoeste 0 -- -- 70
2019-10-14 10:00:00 14.3 15 Sur 32 Sur 0 -- -- 75
2019-10-14 09:00:00 13.7 17 Sur 36 Sudoeste 0 -- -- 76
2019-10-14 08:00:00 12.2 15 Sur 41 Sudoeste 0 -- -- 75
2019-10-14 07:00:00 10.9 14 Sur 34 Sur 0 -- -- 79
2019-10-14 06:00:00 7 6 Sur 9 Sur 0 -- -- 90
2019-10-14 05:00:00 6.5 0 Calma 9 Norte 0 -- -- 88
2019-10-14 04:00:00 7.2 6 Norte 10 Norte 0 -- -- 89
2019-10-14 03:00:00 8.2 6 Norte 12 Norte 0 -- -- 88
2019-10-14 02:00:00 7.2 4 Norte 10 Norte 0 -- -- 87
2019-10-14 01:00:00 8 7 Norte 10 Norte 0 -- -- 84
2019-10-14 00:00:00 8.9 4 Norte 15 Sudeste 0 -- -- 83
2019-10-13 23:00:00 8.6 3 Norte 6 Nordeste 0 -- -- 80
2019-10-13 22:00:00 10.5 2 Oeste 5 Oeste 0 -- -- 71
2019-10-13 21:00:00 14 4 Sur 29 Sudoeste 0 -- -- 54
2019-10-13 20:00:00 15.5 15 Sudoeste 42 Sudoeste 0 -- -- 46
2019-10-13 19:00:00 17.5 19 Sur 40 Sur 0 -- -- 43
2019-10-13 18:00:00 18.9 23 Sudoeste 43 Sur 0 -- -- 43
2019-10-13 17:00:00 20.1 20 Sur 46 Sudoeste 0 -- -- 44
2019-10-13 16:00:00 20.6 20 Sudoeste 47 Sur 0 -- -- 45
2019-10-13 15:00:00 20.1 24 Sudoeste 45 Sur 0 -- -- 48
2019-10-13 14:00:00 18.5 25 Sur 40 Sur 0 -- -- 56
2019-10-13 13:00:00 18 18 Sur 40 Sur 0 -- -- 65
2019-10-13 12:00:00 15.9 16 Sur 32 Sudoeste 0 -- -- 75
2019-10-13 11:00:00 15.2 21 Sur 39 Sur 0 -- -- 79
2019-10-13 10:00:00 12.9 17 Sur 30 Sur 0 -- -- 88
2019-10-13 09:00:00 10 5 Sur 9 Sur 0 -- -- 88
2019-10-13 08:00:00 8.5 4 Sudeste 11 Sudoeste 0 -- -- 88
2019-10-13 07:00:00 8.8 5 Sudoeste 8 Sur 0 -- -- 82
2019-10-13 06:00:00 10.9 6 Sur 14 Sur 0 -- -- 74
2019-10-13 05:00:00 10.9 5 Sudeste 15 Sudoeste 0 -- -- 74
2019-10-13 04:00:00 11.5 8 Sur 17 Sudoeste 0 -- -- 73
2019-10-13 03:00:00 12.9 5 Sudeste 31 Sudoeste 0 -- -- 67
2019-10-13 02:00:00 13.6 17 Sudoeste 47 Sudoeste 0 -- -- 66
2019-10-13 01:00:00 12.9 19 Sudoeste 36 Sudoeste 0 -- -- 73
2019-10-13 00:00:00 10.4 6 Sudeste 16 Sudoeste 0 -- -- 93
2019-10-12 23:00:00 9.9 6 Norte 10 Noroeste 0 -- -- 93
2019-10-12 22:00:00 10.6 8 Norte 15 Norte 0 -- -- 92
2019-10-12 21:00:00 11 8 Norte 17 Norte 0 -- -- 92
2019-10-12 20:00:00 11.9 12 Norte 17 Norte 0 -- -- 90
2019-10-12 19:00:00 13.9 6 Norte 15 Norte 0 -- -- 86
2019-10-12 18:00:00 14.6 11 Norte 58 Oeste 2.8 -- -- 82
2019-10-12 17:00:00 20.8 15 Sur 33 Sur 0 -- -- 44
2019-10-12 16:00:00 22.1 16 Sur 35 Sur 0 -- -- 49
2019-10-12 15:00:00 20.4 16 Sur 41 Sur 0 -- -- 56
2019-10-12 14:00:00 19 14 Sur 30 Sur 0 -- -- 62
2019-10-12 13:00:00 19.2 14 Sur 26 Sur 0 -- -- 64
2019-10-12 12:00:00 17.6 6 Sur 15 Sudeste 0 -- -- 70
2019-10-12 11:00:00 15.8 6 Sur 11 Sudoeste 0 -- -- 80
2019-10-12 10:00:00 11.8 5 Norte 12 Norte 0 -- -- 89
2019-10-12 09:00:00 9.8 3 Norte 9 Norte 0 -- -- 90
2019-10-12 08:00:00 9.3 5 Norte 9 Norte 0 -- -- 91
2019-10-12 07:00:00 9.2 5 Norte 8 Norte 0 -- -- 92
2019-10-12 06:00:00 9.2 4 Norte 9 Norte 0 -- -- 91
2019-10-12 05:00:00 9.3 5 Norte 11 Norte 0 -- -- 90
2019-10-12 04:00:00 10.7 5 Norte 11 Norte 0 -- -- 90
2019-10-12 03:00:00 11.4 6 Norte 10 Norte 0 -- -- 90
2019-10-12 02:00:00 11.5 5 Norte 8 Norte 0 -- -- 87
2019-10-12 01:00:00 12.3 2 Norte 4 Noroeste 0 -- -- 85
2019-10-12 00:00:00 13.2 2 Nordeste 7 Norte 0 -- -- 81
2019-10-11 23:00:00 13.4 2 Norte 8 Nordeste 0 -- -- 78
2019-10-11 22:00:00 15.3 3 Norte 17 Sudoeste 0 -- -- 70
2019-10-11 21:00:00 18.1 11 Sudoeste 22 Sudoeste 0 -- -- 63
2019-10-11 20:00:00 19 12 Sudoeste 26 Sudoeste 0 -- -- 57
2019-10-11 19:00:00 21 11 Sur 28 Sur 0 -- -- 52
2019-10-11 18:00:00 22.1 14 Sur 28 Sur 0 -- -- 50
2019-10-11 17:00:00 23.4 12 Sur 24 Sudoeste 0 -- -- 48
2019-10-11 16:00:00 24 12 Sur 27 Sur 0 -- -- 47
2019-10-11 15:00:00 23.5 12 Sudoeste 28 Sur 0 -- -- 48
2019-10-11 14:00:00 22.3 14 Sudoeste 28 Sudoeste 0 -- -- 46
2019-10-11 13:00:00 20.1 12 Sur 22 Sur 0 -- -- 59
2019-10-11 12:00:00 17.4 10 Sur 19 Sur 0 -- -- 71
2019-10-11 11:00:00 15.3 4 Sudeste 9 Sur 0 -- -- 76
2019-10-11 10:00:00 10.5 0 Calma 8 Norte 0 -- -- 95
2019-10-11 09:00:00 6.2 5 Norte 9 Norte 0 -- -- 97
2019-10-11 08:00:00 5.3 5 Norte 8 Norte 0 -- -- 96
2019-10-11 07:00:00 5.7 6 Norte 9 Norte 0 -- -- 96
2019-10-11 06:00:00 5.8 4 Norte 10 Norte 0 -- -- 95
2019-10-11 05:00:00 6 5 Norte 8 Norte 0 -- -- 95
2019-10-11 04:00:00 6.4 4 Norte 8 Norte 0 -- -- 94
2019-10-11 03:00:00 6.3 3 Norte 9 Norte 0 -- -- 94
2019-10-11 02:00:00 7.2 5 Norte 12 Norte 0 -- -- 92
2019-10-11 01:00:00 7.1 5 Norte 9 Norte 0 -- -- 91
2019-10-11 00:00:00 7.3 5 Norte 9 Norte 0 -- -- 91
2019-10-10 23:00:00 7.9 6 Norte 12 Norte 0 -- -- 89
2019-10-10 22:00:00 9 6 Norte 11 Norte 0 -- -- 86
2019-10-10 21:00:00 10.1 6 Norte 10 Norte 0 -- -- 83
2019-10-10 20:00:00 12.7 5 Norte 8 Norte 0 -- -- 75
2019-10-10 19:00:00 17.9 5 Sur 14 Sur 0 -- -- 59
2019-10-10 18:00:00 18.5 8 Sur 15 Sur 0 -- -- 54
2019-10-10 17:00:00 19.1 8 Sudeste 16 Sur 0 -- -- 49
2019-10-10 16:00:00 18.5 9 Sudeste 19 Sur 0 -- -- 52
2019-10-10 15:00:00 18.1 8 Sudeste 18 Sudoeste 0 -- -- 51
2019-10-10 14:00:00 17 8 Sudeste 16 Sudeste 0 -- -- 55
2019-10-10 13:00:00 16.4 7 Sur 14 Sur 0 -- -- 61
2019-10-10 12:00:00 14.5 9 Sur 16 Sur 0 -- -- 64
2019-10-10 11:00:00 14 5 Sur 9 Sudeste 0 -- -- 67
2019-10-10 10:00:00 9.4 5 Norte 11 Norte 0 -- -- 85
2019-10-10 09:00:00 5.6 9 Norte 14 Norte 0 -- -- 93
2019-10-10 08:00:00 4.2 3 Nordeste 13 Norte 0 -- -- 92
2019-10-10 07:00:00 4.4 8 Norte 15 Norte 0 -- -- 91
2019-10-10 06:00:00 4.6 7 Norte 14 Norte 0 -- -- 91
2019-10-10 05:00:00 5.7 9 Norte 20 Norte 0 -- -- 89
2019-10-10 04:00:00 4.5 4 Norte 10 Norte 0 -- -- 91
2019-10-10 03:00:00 5.5 6 Norte 14 Norte 0 -- -- 89
2019-10-10 02:00:00 6.8 9 Norte 23 Norte 0 -- -- 87
2019-10-10 01:00:00 7.8 18 Norte 27 Norte 0 -- -- 86
2019-10-10 00:00:00 8.2 14 Norte 24 Norte 0 -- -- 85
2019-10-09 23:00:00 8.4 10 Norte 22 Norte 0 -- -- 85
2019-10-09 22:00:00 9.1 15 Norte 27 Noroeste 0 -- -- 84
2019-10-09 21:00:00 9.6 14 Norte 28 Norte 0 -- -- 84
2019-10-09 20:00:00 10.3 17 Norte 30 Norte 0 -- -- 84
2019-10-09 19:00:00 11.8 14 Norte 24 Nordeste 0 -- -- 78
2019-10-09 18:00:00 13.1 14 Norte 27 Noroeste 0 -- -- 76
2019-10-09 17:00:00 14.5 12 Norte 25 Nordeste 0 -- -- 71
2019-10-09 16:00:00 16.2 14 Norte 24 Noroeste 0 -- -- 68
2019-10-09 15:00:00 15.7 12 Norte 27 Noroeste 0 -- -- 68
2019-10-09 14:00:00 15.8 15 Norte 23 Norte 0 -- -- 70
2019-10-09 13:00:00 17.7 6 Este 13 Noroeste 0 -- -- 61
2019-10-09 12:00:00 14.6 11 Norte 27 Norte 0 -- -- 73
2019-10-09 11:00:00 12.9 17 Norte 30 Norte 0 -- -- 80
2019-10-09 10:00:00 12.6 18 Norte 31 Norte 0 -- -- 83
2019-10-09 09:00:00 10.1 3 Norte 18 Norte 0 -- -- 90
2019-10-09 08:00:00 10.8 12 Norte 30 Norte 0 -- -- 89
2019-10-09 07:00:00 10.2 10 Norte 15 Norte 0 -- -- 87
2019-10-09 06:00:00 6.9 5 Noroeste 10 Norte 0 -- -- 88
2019-10-09 05:00:00 7.2 6 Norte 10 Norte 0 -- -- 85
2019-10-09 04:00:00 8.4 8 Norte 13 Norte 0 -- -- 83
2019-10-09 03:00:00 8.8 6 Norte 16 Norte 0 -- -- 80
2019-10-09 02:00:00 9 4 Norte 12 Norte 0 -- -- 79
2019-10-09 01:00:00 9.9 6 Norte 12 Norte 0 -- -- 77
2019-10-09 00:00:00 11.3 7 Norte 12 Noroeste 0 -- -- 70
2019-10-08 23:00:00 13.2 3 Noroeste 22 Norte 0 -- -- 64
2019-10-08 22:00:00 14.1 9 Norte 18 Norte 0 -- -- 62
2019-10-08 21:00:00 16.2 9 Norte 21 Norte 0 -- -- 57
2019-10-08 20:00:00 17.3 9 Noroeste 17 Noroeste 0 -- -- 54
2019-10-08 19:00:00 22 11 Noroeste 20 Oeste 0 -- -- 43
2019-10-08 18:00:00 24.6 11 Sudoeste 27 Sur 0 -- -- 38
2019-10-08 17:00:00 25.8 13 Sudoeste 25 Sudoeste 0 -- -- 37
2019-10-08 16:00:00 26.1 12 Sudoeste 29 Sudoeste 0 -- -- 36
2019-10-08 15:00:00 25.8 15 Sudoeste 27 Sudoeste 0 -- -- 40
2019-10-08 14:00:00 24.6 12 Sudoeste 22 Sudoeste 0 -- -- 41
2019-10-08 13:00:00 22.5 7 Sur 14 Sur 0 -- -- 45
2019-10-08 12:00:00 21 5 Sur 13 Sudeste 0 -- -- 47
2019-10-08 11:00:00 19.5 6 Sudeste 8 Sudeste 0 -- -- 53
2019-10-08 10:00:00 15 3 Norte 12 Norte 0 -- -- 68
2019-10-08 09:00:00 9.3 9 Norte 13 Norte 0 -- -- 83
2019-10-08 08:00:00 8.2 5 Norte 9 Norte 0 -- -- 82
2019-10-08 07:00:00 8.7 5 Norte 14 Norte 0 -- -- 80
2019-10-08 06:00:00 9 8 Norte 13 Norte 0 -- -- 80
2019-10-08 05:00:00 10.3 8 Norte 12 Nordeste 0 -- -- 72
2019-10-08 04:00:00 10.4 9 Norte 21 Noroeste 0 -- -- 66
2019-10-08 03:00:00 13.4 9 Norte 23 Norte 0 -- -- 56
2019-10-08 02:00:00 11.9 12 Norte 18 Norte 0 -- -- 60
2019-10-08 01:00:00 11.5 8 Noroeste 15 Norte 0 -- -- 66
2019-10-08 00:00:00 9.5 3 Oeste 12 Norte 0 -- -- 70
2019-10-07 23:00:00 11.4 2 Sudeste 19 Norte 0 -- -- 56
2019-10-07 22:00:00 10.9 8 Norte 15 Norte 0 -- -- 57
2019-10-07 21:00:00 13.5 10 Noroeste 22 Norte 0 -- -- 48
2019-10-07 20:00:00 14.6 4 Norte 20 Norte 0 -- -- 48
2019-10-07 19:00:00 17.4 12 Norte 35 Norte 0 -- -- 39
2019-10-07 18:00:00 18.8 20 Norte 33 Norte 0 -- -- 40
2019-10-07 17:00:00 19.9 14 Norte 32 Norte 0 -- -- 43
2019-10-07 16:00:00 20 19 Norte 36 Noroeste 0 -- -- 44
2019-10-07 15:00:00 20.1 14 Norte 32 Norte 0 -- -- 43
2019-10-07 14:00:00 18.8 18 Norte 49 Norte 0 -- -- 42
2019-10-07 13:00:00 17.7 24 Norte 40 Nordeste 0 -- -- 35
2019-10-07 12:00:00 16.4 20 Norte 37 Noroeste 0 -- -- 29
2019-10-07 11:00:00 14.9 16 Norte 25 Norte 0 -- -- 28
2019-10-07 10:00:00 13 12 Norte 18 Norte 0 -- -- 33
2019-10-07 09:00:00 9.1 6 Norte 14 Norte 0 -- -- 43
2019-10-07 08:00:00 8.2 11 Norte 16 Norte 0 -- -- 44
2019-10-07 07:00:00 6.7 10 Noroeste 14 Noroeste 0 -- -- 57
2019-10-07 06:00:00 6.5 6 Norte 13 Norte 0 -- -- 68
2019-10-07 05:00:00 8.3 8 Norte 17 Norte 0 -- -- 67
2019-10-07 04:00:00 8.8 7 Norte 15 Nordeste 0 -- -- 75
2019-10-07 03:00:00 8.9 8 Norte 23 Norte 0 -- -- 83
2019-10-07 02:00:00 9.5 12 Norte 27 Norte 0 -- -- 83
2019-10-07 01:00:00 10.1 6 Norte 26 Norte 0 -- -- 87
2019-10-07 00:00:00 10.5 11 Norte 25 Norte 0 -- -- 88
2019-10-06 23:00:00 11 14 Norte 28 Norte 0 -- -- 87
2019-10-06 22:00:00 11.6 15 Norte 27 Norte 0 -- -- 84
2019-10-06 21:00:00 12 15 Norte 31 Norte 0 -- -- 86
2019-10-06 20:00:00 12.4 23 Norte 39 Norte 0 -- -- 83
2019-10-06 19:00:00 14.1 20 Norte 41 Noroeste 0 -- -- 75
2019-10-06 18:00:00 16.7 18 Norte 31 Norte 0 -- -- 67
2019-10-06 17:00:00 18.9 10 Norte 21 Noroeste 0 -- -- 59
2019-10-06 16:00:00 19.8 3 Norte 15 Norte 0 -- -- 52
2019-10-06 15:00:00 18.9 7 Sudeste 14 Sur 0 -- -- 54
2019-10-06 14:00:00 17.4 0 Calma 18 Nordeste 0 -- -- 61
2019-10-06 13:00:00 14.4 9 Nordeste 24 Norte 0 -- -- 71
2019-10-06 12:00:00 14.6 13 Norte 24 Nordeste 0 -- -- 70
2019-10-06 11:00:00 12.5 10 Norte 26 Norte 0 -- -- 75
2019-10-06 10:00:00 11.3 15 Norte 26 Norte 0 -- -- 77
2019-10-06 09:00:00 10.2 11 Nordeste 19 Noroeste 0 -- -- 76
2019-10-06 08:00:00 9.2 11 Norte 17 Norte 0 -- -- 83
2019-10-06 07:00:00 8.1 7 Norte 13 Norte 0 -- -- 86
2019-10-06 06:00:00 8.3 11 Norte 16 Noroeste 0 -- -- 85
2019-10-06 05:00:00 8.1 9 Norte 14 Noroeste 0 -- -- 86
2019-10-06 04:00:00 7.8 2 Norte 14 Norte 0 -- -- 85
2019-10-06 03:00:00 8.9 12 Norte 19 Norte 0 -- -- 85
2019-10-06 02:00:00 9.1 3 Nordeste 15 Norte 0 -- -- 84
2019-10-06 01:00:00 9.4 6 Norte 13 Norte 0 -- -- 86
2019-10-06 00:00:00 10.2 8 Norte 13 Noroeste 0 -- -- 86
2019-10-05 23:00:00 11 9 Noroeste 14 Norte 0 -- -- 87
2019-10-05 22:00:00 11.4 7 Norte 15 Noroeste 0 -- -- 84
2019-10-05 21:00:00 13.7 3 Norte 13 Noroeste 0 -- -- 76
2019-10-05 20:00:00 16 8 Norte 16 Noroeste 0 -- -- 69
2019-10-05 19:00:00 19.8 10 Noroeste 17 Este 0 -- -- 57
2019-10-05 18:00:00 22.7 4 Sur 17 Sur 0 -- -- 44
2019-10-05 17:00:00 23.3 9 Sudeste 16 Sudeste 0 -- -- 37
2019-10-05 16:00:00 23 5 Sudeste 18 Sudeste 0 -- -- 38
2019-10-05 15:00:00 22.4 8 Sudeste 15 Sur 0 -- -- 38
2019-10-05 14:00:00 22 9 Sur 15 Sur 0 -- -- 47
2019-10-05 13:00:00 20.5 7 Sur 15 Sur 0 -- -- 53
2019-10-05 12:00:00 19.2 6 Sur 11 Sur 0 -- -- 59
2019-10-05 11:00:00 17.2 5 Sur 10 Sudeste 0 -- -- 68
2019-10-05 10:00:00 11.9 2 Norte 6 Norte 0 -- -- 87
2019-10-05 09:00:00 7.4 6 Norte 10 Norte 0 -- -- 96
2019-10-05 08:00:00 6.1 6 Norte 9 Nordeste 0 -- -- 94
2019-10-05 07:00:00 6.6 4 Norte 13 Norte 0 -- -- 93
2019-10-05 06:00:00 6.6 6 Norte 10 Norte 0 -- -- 93
2019-10-05 05:00:00 6.9 3 Norte 14 Norte 0 -- -- 91
2019-10-05 04:00:00 8.5 10 Norte 16 Norte 0 -- -- 91
2019-10-05 03:00:00 10.1 11 Norte 18 Noroeste 0 -- -- 90
2019-10-05 02:00:00 10.2 10 Norte 16 Noroeste 0 -- -- 89
2019-10-05 01:00:00 10.8 11 Norte 20 Noroeste 0 -- -- 88
2019-10-05 00:00:00 11.7 8 Noroeste 21 Norte 0 -- -- 87
2019-10-04 23:00:00 12.3 13 Norte 25 Norte 0 -- -- 87
2019-10-04 22:00:00 12.9 14 Norte 23 Norte 0 -- -- 84
2019-10-04 21:00:00 13.6 12 Noroeste 17 Noroeste 0 -- -- 81
2019-10-04 20:00:00 15.6 7 Noroeste 17 Norte 0 -- -- 74
2019-10-04 19:00:00 19.5 3 Norte 14 Nordeste 0 -- -- 61
2019-10-04 18:00:00 22.2 9 Noroeste 29 Sudoeste 0 -- -- 51
2019-10-04 17:00:00 23.4 14 Sudoeste 29 Sudoeste 0 -- -- 46
2019-10-04 16:00:00 23.8 15 Sudoeste 33 Sudoeste 0 -- -- 46
2019-10-04 15:00:00 23.2 17 Sudoeste 31 Sudoeste 0 -- -- 48
2019-10-04 14:00:00 21 6 Sudeste 17 Sudeste 0 -- -- 49
2019-10-04 13:00:00 20.4 6 Sur 13 Sudeste 0 -- -- 48
2019-10-04 12:00:00 18.1 4 Sur 12 Sudeste 0 -- -- 50
2019-10-04 11:00:00 16.5 5 Sur 9 Sur 0 -- -- 53
2019-10-04 10:00:00 13 0 Calma 9 Norte 0 -- -- 71
2019-10-04 09:00:00 7.7 6 Norte 15 Norte 0 -- -- 84
2019-10-04 08:00:00 6.3 6 Norte 14 Norte 0 -- -- 85
2019-10-04 07:00:00 6 6 Norte 10 Noroeste 0 -- -- 86
2019-10-04 06:00:00 6.3 6 Norte 13 Norte 0 -- -- 85
2019-10-04 05:00:00 6.7 7 Norte 11 Norte 0 -- -- 85
2019-10-04 04:00:00 8.6 10 Noroeste 15 Noroeste 0 -- -- 80
2019-10-04 03:00:00 9.8 9 Norte 19 Noroeste 0 -- -- 77
2019-10-04 02:00:00 10.1 14 Norte 22 Norte 0 -- -- 78
2019-10-04 01:00:00 10.7 11 Norte 21 Norte 0 -- -- 76
2019-10-04 00:00:00 8.5 9 Noroeste 14 Norte 0 -- -- 82
2019-10-03 23:00:00 8.6 5 Norte 10 Norte 0 -- -- 76
2019-10-03 22:00:00 9 8 Norte 13 Norte 0 -- -- 74
2019-10-03 21:00:00 10.7 4 Norte 10 Norte 0 -- -- 68
2019-10-03 20:00:00 14.2 4 Norte 21 Noroeste 0 -- -- 57
2019-10-03 19:00:00 17.2 10 Norte 27 Noroeste 0 -- -- 48
2019-10-03 18:00:00 19.1 14 Norte 25 Norte 0 -- -- 47
2019-10-03 17:00:00 20.1 16 Norte 26 Norte 0 -- -- 45
2019-10-03 16:00:00 21 14 Norte 23 Norte 0 -- -- 38
2019-10-03 15:00:00 22.3 5 Este 18 Nordeste 0 -- -- 32
2019-10-03 14:00:00 20.9 4 Sudeste 12 Sur 0 -- -- 36
2019-10-03 13:00:00 18.7 6 Sur 12 Sudeste 0 -- -- 35
2019-10-03 12:00:00 15.8 6 Sudeste 11 Sudeste 0 -- -- 41
2019-10-03 11:00:00 13.2 4 Sur 6 Sur 0 -- -- 49
2019-10-03 10:00:00 10.1 3 Sudeste 11 Norte 0 -- -- 56
2019-10-03 09:00:00 3.8 7 Norte 10 Norte 0 -- -- 65
2019-10-03 08:00:00 3 6 Norte 15 Norte 0 -- -- 66
2019-10-03 07:00:00 3.6 10 Norte 16 Norte 0 -- -- 70
2019-10-03 06:00:00 3 9 Norte 13 Norte 0 -- -- 82
2019-10-03 05:00:00 3.6 5 Norte 11 Nordeste 0 -- -- 87
2019-10-03 04:00:00 4.5 4 Norte 9 Noroeste 0 -- -- 86
2019-10-03 03:00:00 6.5 5 Noroeste 16 Nordeste 0 -- -- 82
2019-10-03 02:00:00 7.9 5 Norte 24 Noroeste 0 -- -- 81
2019-10-03 01:00:00 8.2 9 Norte 21 Norte 0 -- -- 79
2019-10-03 00:00:00 8.8 11 Norte 31 Norte 0 -- -- 78
2019-10-02 23:00:00 9.2 12 Norte 37 Norte 0 -- -- 76
2019-10-02 22:00:00 10.1 14 Norte 25 Norte 0 -- -- 76
2019-10-02 21:00:00 10.8 7 Norte 22 Norte 0 -- -- 75
2019-10-02 20:00:00 10.9 9 Norte 23 Norte 0 -- -- 73
2019-10-02 19:00:00 12.2 15 Norte 23 Norte 0 -- -- 65
2019-10-02 18:00:00 12.8 12 Norte 37 Norte 0 -- -- 64
2019-10-02 17:00:00 13.7 22 Norte 41 Noroeste 0 -- -- 60
2019-10-02 16:00:00 13.7 17 Norte 35 Norte 0 -- -- 59
2019-10-02 15:00:00 13.1 16 Norte 39 Norte 0 -- -- 61
2019-10-02 14:00:00 13.4 19 Norte 49 Norte 0 -- -- 65
2019-10-02 13:00:00 12 25 Norte 40 Noroeste 0 -- -- 72
2019-10-02 12:00:00 12.6 27 Norte 43 Norte 0 -- -- 68
2019-10-02 11:00:00 11.2 23 Norte 37 Norte 0 -- -- 73
2019-10-02 10:00:00 11 16 Norte 32 Norte 0 -- -- 69
2019-10-02 09:00:00 9 8 Noroeste 17 Noroeste 0 -- -- 76
2019-10-02 08:00:00 9.1 7 Nordeste 16 Nordeste 0 -- -- 75
2019-10-02 07:00:00 9.4 4 Nordeste 21 Nordeste 0 -- -- 75
2019-10-02 06:00:00 9.4 6 Nordeste 27 Norte 0 -- -- 76
2019-10-02 05:00:00 10.6 11 Nordeste 22 Nordeste 0 -- -- 79
2019-10-02 04:00:00 10.5 10 Norte 20 Norte 0 -- -- 82
2019-10-02 03:00:00 11.2 10 Norte 22 Norte 0 -- -- 82
2019-10-02 02:00:00 9.6 5 Norte 15 Noroeste 0 -- -- 91
2019-10-02 01:00:00 8.1 9 Norte 13 Norte 0 -- -- 89
2019-10-02 00:00:00 10.3 5 Norte 21 Norte 0 -- -- 84
2019-10-01 23:00:00 9.6 9 Norte 18 Norte 0 -- -- 84
2019-10-01 22:00:00 9.7 4 Norte 11 Norte 0 -- -- 77
2019-10-01 21:00:00 12.1 8 Norte 18 Noroeste 0 -- -- 67
2019-10-01 20:00:00 15.3 10 Noroeste 17 Noroeste 0 -- -- 53
2019-10-01 19:00:00 17.5 5 Noroeste 14 Noroeste 0 -- -- 53
2019-10-01 18:00:00 19.9 11 Noroeste 26 Oeste 0 -- -- 45
2019-10-01 17:00:00 20.6 10 Oeste 29 Oeste 0 -- -- 44
2019-10-01 16:00:00 21.4 9 Noroeste 22 Oeste 0 -- -- 49
2019-10-01 15:00:00 20.4 12 Noroeste 32 Sudoeste 0 -- -- 46
2019-10-01 14:00:00 20.9 17 Oeste 32 Sudoeste 0 -- -- 47
2019-10-01 13:00:00 21 14 Oeste 28 Sudoeste 0 -- -- 49
2019-10-01 12:00:00 19.4 8 Sur 16 Sur 0 -- -- 56
2019-10-01 11:00:00 17.9 3 Sudeste 7 Este 0 -- -- 59
2019-10-01 10:00:00 13.8 3 Norte -- -- 0 -- -- 72
2019-10-01 09:00:00 -- -- -- -- -- 0 -- -- --
2019-10-01 08:00:00 -- -- -- -- -- 0 -- -- --
2019-10-01 07:00:00 -- -- -- -- -- 0 -- -- --
2019-10-01 06:00:00 -- -- -- -- -- 0 -- -- --
2019-10-01 05:00:00 -- -- -- -- -- 0 -- -- --
2019-10-01 04:00:00 -- -- -- -- -- 0 -- -- --
2019-10-01 03:00:00 -- -- -- -- -- 0 -- -- --
2019-10-01 02:00:00 -- -- -- -- -- 0 -- -- --
2019-10-01 01:00:00 -- -- -- -- -- 0 -- -- --
2019-10-01 00:00:00 -- -- -- -- -- 0 -- -- --
2019-09-30 23:00:00 -- -- -- -- -- 0 -- -- --
2019-09-30 22:00:00 -- -- -- -- -- 0 -- -- --
2019-09-30 21:00:00 -- -- -- -- -- 0 -- -- --
2019-09-30 20:00:00 -- -- -- -- -- 0 -- -- --
2019-09-30 19:00:00 22 6 Sur 18 Sudoeste 0 -- -- 36
2019-09-30 18:00:00 23.3 13 Sudoeste 26 Sudoeste 0 -- -- 34
2019-09-30 17:00:00 25.2 12 Sudoeste 27 Sur 0 -- -- 38
2019-09-30 16:00:00 24.9 15 Sudoeste 30 Sur 0 -- -- 40
2019-09-30 15:00:00 24.9 13 Sudoeste 28 Sudoeste 0 -- -- 42
2019-09-30 14:00:00 24.3 14 Sudoeste 29 Sudoeste 0 -- -- 46
2019-09-30 13:00:00 22.2 10 Sur 17 Sur 0 -- -- 52
2019-09-30 12:00:00 20.4 4 Sur 11 Sudeste 0 -- -- 54
2019-09-30 11:00:00 17.8 9 Sudeste 15 Sudeste 0 -- -- 55
2019-09-30 10:00:00 14.4 2 Este 8 Norte 0 -- -- 67
2019-09-30 09:00:00 -- -- -- -- -- 0 -- -- --
2019-09-30 08:00:00 -- -- -- -- -- 0 -- -- --
2019-09-30 07:00:00 -- -- -- -- -- 0 -- -- --
2019-09-30 06:00:00 -- -- -- -- -- 0 -- -- --
2019-09-30 05:00:00 -- -- -- -- -- 0 -- -- --
2019-09-30 04:00:00 -- -- -- -- -- 0 -- -- --
2019-09-30 03:00:00 -- -- -- -- -- 0 -- -- --
2019-09-30 02:00:00 -- -- -- -- -- 0 -- -- --
2019-09-30 01:00:00 -- -- -- -- -- 0 -- -- --
2019-09-30 00:00:00 -- -- -- -- -- 0 -- -- --
2019-09-29 23:00:00 -- -- -- -- -- 0 -- -- --
2019-09-29 22:00:00 -- -- -- -- -- 0 -- -- --
2019-09-29 21:00:00 -- -- -- -- -- 0 -- -- --
2019-09-29 20:00:00 -- -- -- -- -- 0 -- -- --
2019-09-29 19:00:00 21.9 3 Noroeste 24 Sudoeste 0 -- -- 36
2019-09-29 18:00:00 23 13 Sudoeste 26 Oeste 0 -- -- 27
2019-09-29 17:00:00 24.7 14 Sudoeste 30 Sudoeste 0 -- -- 27
2019-09-29 16:00:00 24.5 17 Oeste 33 Sudoeste 0 -- -- 27
2019-09-29 15:00:00 24.8 13 Sudoeste 30 Sudoeste 0 -- -- 30
2019-09-29 14:00:00 23.8 18 Sudoeste 30 Sudoeste 0 -- -- 30
2019-09-29 13:00:00 22.9 16 Sudoeste 33 Sudeste 0 -- -- 37
2019-09-29 12:00:00 20.3 11 Sudeste 18 Sudeste 0 -- -- 43
2019-09-29 11:00:00 18.4 6 Sudeste 12 Sur 0 -- -- 52
2019-09-29 10:00:00 13.9 3 Sudoeste 10 Sudoeste 0 -- -- 61
2019-09-29 09:00:00 8 4 Oeste -- -- 0 -- -- 80
2019-09-29 08:00:00 -- -- -- -- -- 0 -- -- --
2019-09-29 07:00:00 -- -- -- -- -- 0 -- -- --
2019-09-29 06:00:00 -- -- -- -- -- 0 -- -- --
2019-09-29 05:00:00 -- -- -- -- -- 0 -- -- --
2019-09-29 04:00:00 -- -- -- -- -- 0 -- -- --
2019-09-29 03:00:00 -- -- -- -- -- 0 -- -- --
2019-09-29 02:00:00 -- -- -- -- -- 0 -- -- --
2019-09-29 01:00:00 -- -- -- -- -- 0 -- -- --
2019-09-29 00:00:00 -- -- -- -- -- 0 -- -- --
2019-09-28 23:00:00 -- -- -- -- -- 0 -- -- --
2019-09-28 22:00:00 9.9 10 Norte 13 Norte 0 -- -- 63
2019-09-28 21:00:00 11.7 9 Norte 13 Norte 0 -- -- 59
2019-09-28 20:00:00 14.8 4 Norte 11 Sudoeste 0 -- -- 51
2019-09-28 19:00:00 21.6 6 Sudoeste 22 Sudoeste 0 -- -- 35
2019-09-28 18:00:00 22.7 12 Sudoeste 26 Sudoeste 0 -- -- 32
2019-09-28 17:00:00 23.5 9 Sudoeste 26 Sur 0 -- -- 32
2019-09-28 16:00:00 23.7 13 Sudoeste 24 Sudoeste 0 -- -- 35
2019-09-28 15:00:00 23 13 Sudoeste 26 Sudoeste 0 -- -- 40
2019-09-28 14:00:00 22 14 Sudoeste 28 Sudoeste 0 -- -- 44
2019-09-28 13:00:00 20 12 Sudoeste 25 Sudoeste 0 -- -- 44
2019-09-28 12:00:00 17.6 8 Sur 13 Sur 0 -- -- 55
2019-09-28 11:00:00 16 5 Sur 9 Sudeste 0 -- -- 58
2019-09-28 10:00:00 12.1 2 Nordeste 11 Norte 0 -- -- 75
2019-09-28 09:00:00 7.1 5 Norte 9 Noroeste 0 -- -- 91
2019-09-28 08:00:00 5.3 5 Norte 10 Norte 0 -- -- 90
2019-09-28 07:00:00 5.7 4 Norte 11 Norte 0 -- -- 89
2019-09-28 06:00:00 6.2 6 Norte 9 Norte 0 -- -- 89
2019-09-28 05:00:00 6.7 4 Norte 12 Norte 0 -- -- 85
2019-09-28 04:00:00 6.8 6 Norte 12 Norte 0 -- -- 84
2019-09-28 03:00:00 7.2 7 Norte 11 Norte 0 -- -- 80
2019-09-28 02:00:00 8.3 8 Norte 15 Norte 0 -- -- 75
2019-09-28 01:00:00 8.4 9 Norte 13 Norte 0 -- -- 68
2019-09-28 00:00:00 9.6 8 Norte 17 Norte 0 -- -- 59
2019-09-27 23:00:00 9.2 3 Norte 14 Norte 0 -- -- 59
2019-09-27 22:00:00 10.2 6 Norte 15 Norte 0 -- -- 56
2019-09-27 21:00:00 12.2 9 Noroeste 15 Norte 0 -- -- 54
2019-09-27 20:00:00 14.4 7 Norte 9 Norte 0 -- -- 49
2019-09-27 19:00:00 19.9 9 Oeste 22 Oeste 0 -- -- 32
2019-09-27 18:00:00 21.7 11 Sudoeste 29 Oeste 0 -- -- 31
2019-09-27 17:00:00 23.2 13 Sudoeste 26 Sur 0 -- -- 28
2019-09-27 16:00:00 23.8 11 Sudoeste 28 Oeste 0 -- -- 31
2019-09-27 15:00:00 23.3 14 Sudoeste 28 Sudoeste 0 -- -- 28
2019-09-27 14:00:00 22.6 16 Sudoeste 29 Sudoeste 0 -- -- 36
2019-09-27 13:00:00 20.9 9 Sur 24 Sur 0 -- -- 40
2019-09-27 12:00:00 18.3 9 Sur 15 Sur 0 -- -- 47
2019-09-27 11:00:00 17.7 6 Sur 9 Sur 0 -- -- 48
2019-09-27 10:00:00 14.2 2 Nordeste 13 Norte 0 -- -- 58
2019-09-27 09:00:00 8.7 7 Norte 14 Norte 0 -- -- 67
2019-09-27 08:00:00 7.2 5 Noroeste 15 Norte 0 -- -- 70
2019-09-27 07:00:00 7.4 5 Norte 16 Noroeste 0 -- -- 71
2019-09-27 06:00:00 7.8 8 Norte 13 Noroeste 0 -- -- 70
2019-09-27 05:00:00 7.9 5 Norte 15 Noroeste 0 -- -- 68
2019-09-27 04:00:00 8.7 9 Norte 17 Norte 0 -- -- 62
2019-09-27 03:00:00 8.7 10 Norte 14 Noroeste 0 -- -- 65
2019-09-27 02:00:00 9.2 9 Norte 15 Norte 0 -- -- 65
2019-09-27 01:00:00 9.6 9 Norte 16 Norte 0 -- -- 61
2019-09-27 00:00:00 9.5 7 Norte 13 Noroeste 0 -- -- 62
2019-09-26 23:00:00 10.2 9 Norte 13 Norte 0 -- -- 69
2019-09-26 22:00:00 11.7 8 Norte 12 Norte 0 -- -- 71
2019-09-26 21:00:00 13.6 6 Norte 10 Norte 0 -- -- 65
2019-09-26 20:00:00 17.2 7 Oeste 11 Sudoeste 0 -- -- 52
2019-09-26 19:00:00 21.5 9 Sudoeste 25 Sudoeste 0 -- -- 44
2019-09-26 18:00:00 22.7 14 Sudoeste 24 Sudoeste 0 -- -- 36
2019-09-26 17:00:00 24 16 Sudoeste 30 Sudoeste 0 -- -- 36
2019-09-26 16:00:00 23.7 13 Sudoeste 24 Oeste 0 -- -- 40
2019-09-26 15:00:00 23 9 Sudoeste 24 Oeste 0 -- -- 47
2019-09-26 14:00:00 22.1 12 Sur 23 Sur 0 -- -- 52
2019-09-26 13:00:00 20.4 11 Sudoeste 22 Sudoeste 0 -- -- 60
2019-09-26 12:00:00 17.5 9 Sur 16 Sur 0 -- -- 62
2019-09-26 11:00:00 15.9 6 Sur 10 Sudeste 0 -- -- 66
2019-09-26 10:00:00 13.5 0 Calma 6 Norte 0 -- -- 74
2019-09-26 09:00:00 9.2 3 Norte 11 Norte 0 -- -- 91
2019-09-26 08:00:00 7.2 6 Norte 9 Norte 0 -- -- 92
2019-09-26 07:00:00 7.6 6 Norte 13 Norte 0 -- -- 91
2019-09-26 06:00:00 7.2 6 Norte 10 Norte 0 -- -- 92
2019-09-26 05:00:00 7.5 4 Norte 9 Norte 0 -- -- 90
2019-09-26 04:00:00 7.9 5 Norte 11 Norte 0 -- -- 90
2019-09-26 03:00:00 7.9 4 Norte 13 Norte 0 -- -- 88
2019-09-26 02:00:00 8 5 Norte 11 Norte 0 -- -- 87
2019-09-26 01:00:00 8.8 0 Calma 10 Noroeste 0 -- -- 85
2019-09-26 00:00:00 9.5 2 Norte 10 Noroeste 0 -- -- 83
2019-09-25 23:00:00 11.3 7 Norte 15 Noroeste 0 -- -- 78
2019-09-25 22:00:00 12.2 5 Norte 15 Norte 0 -- -- 76
2019-09-25 21:00:00 11.8 10 Norte 15 Noroeste 0 -- -- 81
2019-09-25 20:00:00 14.3 0 Calma 12 Noroeste 0 -- -- 69
2019-09-25 19:00:00 17.2 6 Noroeste 10 Noroeste 0 -- -- 61
2019-09-25 18:00:00 17.8 6 Sudoeste 16 Sudoeste 0 -- -- 60
2019-09-25 17:00:00 19 6 Sudoeste 16 Sudoeste 0 -- -- 55
2019-09-25 16:00:00 19.4 7 Sudoeste 19 Sur 0 -- -- 51
2019-09-25 15:00:00 17.6 10 Sur 21 Sur 0 -- -- 57
2019-09-25 14:00:00 16.4 9 Sudeste 20 Sudeste 0 -- -- 60
2019-09-25 13:00:00 15.1 3 Nordeste 18 Nordeste 0 -- -- 60
2019-09-25 12:00:00 13.8 10 Nordeste 20 Norte 0 -- -- 62
2019-09-25 11:00:00 12.7 11 Nordeste 18 Norte 0 -- -- 65
2019-09-25 10:00:00 11.4 10 Norte 20 Noroeste 0 -- -- 69
2019-09-25 09:00:00 8.7 8 Norte 17 Sudoeste 0 -- -- 82
2019-09-25 08:00:00 6.8 2 Norte 12 Noroeste 0 -- -- 88
2019-09-25 07:00:00 7.8 3 Nordeste 13 Norte 0 -- -- 85
2019-09-25 06:00:00 8.3 4 Norte 11 Noroeste 0 -- -- 86
2019-09-25 05:00:00 9 6 Norte 11 Norte 0 -- -- 86
2019-09-25 04:00:00 8.7 0 Calma 9 Norte 0 -- -- 88
2019-09-25 03:00:00 9.6 4 Norte 9 Norte 0 -- -- 89
2019-09-25 02:00:00 10.7 6 Norte 10 Norte 0 -- -- 88
2019-09-25 01:00:00 11.4 5 Norte 9 Noroeste 0 -- -- 88
2019-09-25 00:00:00 12.5 0 Calma 9 Sudeste 0 -- -- 79
2019-09-24 23:00:00 13.8 3 Noroeste 24 Oeste 0 -- -- 71
2019-09-24 22:00:00 13.6 12 Oeste 23 Oeste 0 -- -- 72
2019-09-24 21:00:00 14 6 Oeste 18 Oeste 0 -- -- 80
2019-09-24 20:00:00 15.8 6 Oeste 32 Oeste 0 -- -- 72
2019-09-24 19:00:00 16.8 13 Oeste 30 Oeste 0 -- -- 69
2019-09-24 18:00:00 16.6 9 Sudoeste 32 Sudoeste 0 -- -- 74
2019-09-24 17:00:00 18.4 19 Oeste 35 Oeste 0 -- -- 66
2019-09-24 16:00:00 19.7 15 Oeste 37 Oeste 0 -- -- 64
2019-09-24 15:00:00 19.1 17 Oeste 32 Oeste 0 -- -- 66
2019-09-24 14:00:00 19.1 15 Oeste 33 Sudoeste 0 -- -- 64
2019-09-24 13:00:00 18.2 22 Oeste 34 Oeste 0 -- -- 65
2019-09-24 12:00:00 19.2 15 Oeste 40 Oeste 0 -- -- 55
2019-09-24 11:00:00 18.2 20 Oeste 39 Noroeste 0 -- -- 52
2019-09-24 10:00:00 16.4 18 Oeste 35 Oeste 0 -- -- 56
2019-09-24 09:00:00 12.6 6 Sur 12 Sudoeste 0 -- -- 74
2019-09-24 08:00:00 11.3 4 Nordeste 13 Sudeste 0 -- -- 76
2019-09-24 07:00:00 12.1 3 Este 15 Noroeste 0 -- -- 71
2019-09-24 06:00:00 11.2 3 Norte 13 Noroeste 0 -- -- 70
2019-09-24 05:00:00 9.5 6 Norte 14 Norte 0 -- -- 81
2019-09-24 04:00:00 9.6 9 Sur 17 Sudeste 0 -- -- 83
2019-09-24 03:00:00 8.6 3 Nordeste 10 Norte 0 -- -- 85
2019-09-24 02:00:00 9.3 4 Noroeste 10 Nordeste 0 -- -- 83
2019-09-24 01:00:00 10.3 4 Nordeste 9 Sur 0 -- -- 80
2019-09-24 00:00:00 9.5 3 Norte 11 Noroeste 0 -- -- 83
2019-09-23 23:00:00 10 5 Norte 10 Norte 0 -- -- 82
2019-09-23 22:00:00 10.8 4 Norte 12 Norte 0 -- -- 80
2019-09-23 21:00:00 13.1 3 Norte 9 Sudoeste 0 -- -- 66
2019-09-23 20:00:00 15.4 6 Sudoeste 16 Sudoeste 0 -- -- 58
2019-09-23 19:00:00 17.7 10 Sudoeste 22 Oeste 0 -- -- 56
2019-09-23 18:00:00 18.4 10 Sudoeste 24 Sur 0 -- -- 55
2019-09-23 17:00:00 18.9 12 Sudoeste 21 Sur 0 -- -- 52
2019-09-23 16:00:00 18.3 10 Sur 22 Sur 0 -- -- 56
2019-09-23 15:00:00 17 11 Sur 24 Sudoeste 0 -- -- 59
2019-09-23 14:00:00 16.8 12 Sudoeste 21 Sudeste 0 -- -- 62
2019-09-23 13:00:00 14.9 10 Sudoeste 18 Sudoeste 0 -- -- 68
2019-09-23 12:00:00 13.8 8 Sudeste 17 Sudeste 0 -- -- 68
2019-09-23 11:00:00 11.9 5 Sur 10 Sur 0 -- -- 76
2019-09-23 10:00:00 9.1 3 Sur 7 Sur 0 -- -- 83
2019-09-23 09:00:00 6.7 2 Norte 12 Nordeste 0 -- -- 92
2019-09-23 08:00:00 4.8 4 Norte 10 Norte 0 -- -- 92
2019-09-23 07:00:00 5 4 Norte 9 Norte 0 -- -- 91
2019-09-23 06:00:00 5.3 5 Norte 10 Norte 0 -- -- 91
2019-09-23 05:00:00 5.2 6 Norte 12 Norte 0 -- -- 91
2019-09-23 04:00:00 5.6 6 Norte 12 Norte 0 -- -- 89
2019-09-23 03:00:00 5.9 5 Norte 9 Norte 0 -- -- 90
2019-09-23 02:00:00 6 5 Norte 10 Norte 0 -- -- 89
2019-09-23 01:00:00 6.3 6 Norte 13 Norte 0 -- -- 89
2019-09-23 00:00:00 6.8 4 Norte 8 Norte 0 -- -- 87
2019-09-22 23:00:00 7.5 4 Norte 8 Norte 0 -- -- 85
2019-09-22 22:00:00 8.7 2 Nordeste 10 Nordeste 0 -- -- 82
2019-09-22 21:00:00 9.9 5 Norte 12 Oeste 0 -- -- 78
2019-09-22 20:00:00 13.1 8 Oeste 17 Sudoeste 0 -- -- 63
2019-09-22 19:00:00 15.7 6 Noroeste 22 Oeste 0 -- -- 54
2019-09-22 18:00:00 16.4 12 Sudoeste 24 Oeste 0 -- -- 55
2019-09-22 17:00:00 16 11 Oeste 30 Sudoeste 0 -- -- 55
2019-09-22 16:00:00 16.5 15 Oeste 32 Oeste 0 -- -- 53
2019-09-22 15:00:00 16.9 12 Sudoeste 33 Sudoeste 0 -- -- 56
2019-09-22 14:00:00 16.3 18 Sudoeste 33 Sudoeste 0 -- -- 60
2019-09-22 13:00:00 16.4 14 Sudoeste 27 Sudoeste 0 -- -- 62
2019-09-22 12:00:00 15.1 6 Sudoeste 23 Sudoeste 0 -- -- 76
2019-09-22 11:00:00 12.8 11 Oeste 23 Sudoeste 0 -- -- 81
2019-09-22 10:00:00 11.9 10 Sudoeste 24 Oeste 0 -- -- 88
2019-09-22 09:00:00 11.9 5 Sudoeste 17 Oeste 0.2 -- -- 91
2019-09-22 08:00:00 12.7 5 Sudoeste 20 Sudoeste 0 -- -- 93
2019-09-22 07:00:00 13 14 Sudoeste 28 Sudoeste 0.2 -- -- 95
2019-09-22 06:00:00 13.1 9 Sur 21 Sudoeste 1 -- -- 94
2019-09-22 05:00:00 13.2 11 Sur 19 Sur 0.2 -- -- 90
2019-09-22 04:00:00 13.2 7 Sur 18 Sudoeste 0 -- -- 89
2019-09-22 03:00:00 13.6 6 Sur 12 Sudeste 0 -- -- 88
2019-09-22 02:00:00 14 5 Sudeste 22 Sur 0 -- -- 86
2019-09-22 01:00:00 14.2 13 Sur 28 Sudoeste 0 -- -- 87
2019-09-22 00:00:00 14.4 10 Sudeste 23 Sur 0 -- -- 86